MTS weather

Matsapha Airport
Manzini, Manzini, Swaziland

Public forecast

Using degrees Celsius for public forecast. Weather courtesy of forecast.io.

Current aviation weather report (METAR) for Matsapha Airport

Report is more than 6 hours old.

Retrieved 2019/11/12 13:00 UTC (12 hours ago):

FDMS 121300Z 04015KT 9999 SCT030 FEW040CB 25/20 Q1012 TEMPO 7000 -TSRA BKN020 FEW030CB

Aviation forecast (TAF) for Matsapha Airport

Forecast is more than 12 hours old.

Retrieved 2019/10/02 12:33 UTC (1 month ago):

TAF TAF FDMS 021000Z 0212/0318 08007KT 9999 SCT035